Ava, New York
Current Conditions -  °F | °C
As of 3:53 PM on Wednesday 17 Dec 2014 (Local Time) from KRME Reporting Station
Light Rain Light Rain  
Wind Chill: 28°   Ceiling: 900
Heat Index: 35°   Visibility: 9mi
Dew Point: 33°   Wind: 9mph
Humidity: 92%   Direction: 270°W
Pressure: 29.87"   Gusts: NA
Location:  43.42°N, 75.48°W
Report Text: KRME 172053Z 27008KT 9SM -RA BKN009 BKN029 OVC038 02/01 A2987 RMK AO2 SLP118 P0002 60005 T00170006 53011
Loading
Personal Weather Stations






























Interactive Weather Map New forecast layout! Learn more

10-Day Weather Forecast

Advertisements
Track Severe Weather on mobile